Groton New London Airport
KGON : rendu visible

Aérodrome :











RETROUVEZ-NOUS SUR...

 
LOGIN :

S'inscrire | Disclaimer

   EN    FR    IT 

 









Légende :    VFR   VFR Marginal   IFR   IFR Intensif   IFR Très Intensif
Visi : 
Plafond : 
>= 8 km
>= 3000ft
5 à 8 km
1000 à 3000 ft
1500m à 5 km
500 à 1000 ft
800 à 1500m
200 à 500 ft
< 800m
< 200 ft
Symboles :   Orages  Brouillard  Fortes neiges  Fortes précipitations  Vent > 20 kt






- Altitude de l'aérodrome : 9 ft
- Code IATA : GON


KGON - Groton New London

DERNIER METAR :
  • 040256Z AUTO 03013G21KT 10SM OVC021 08/05 A2981 RMK AO2 PK WND 03027/0232 SLP094 T00780050 51026

METARs EXPIRÉS :
  • 040156Z 02016G29KT 10SM OVC021 08/06 A2979 RMK AO2 PK WND 04032/0057 SLP088 T00780061
  • 040056Z 03017G27KT 10SM BKN021 OVC026 08/06 A2977 RMK AO2 PK WND 01032/0005 SLP080 T00830056

TAF KGON
Valide du 04 à 03h jusqu'au 05 à 00h UTC


040231Z 0403/0424 02018G25KT P6SM OVC020
FM040800 02015G22KT P6SM OVC020
FM041800 05012KT P6SM BKN035



MET'MAP, la Météo Aéronautique d'un coup d'oeil ! - Copyright ORBIFLY Décembre 2007 - Disclaimer

ORBIFLY MET'MAP TEAM :

Programmation & Développement : Alexandra Zaïnal
Sur une idée originale de : Baudouin d'Aumeries
Assistance à la programmation : Marc-Olivier Méhu
Soutien technique & logistique : Manuel Goepfert

Contact : metmap@orbifly.com




SOURCES & CREDITS :

   NOAA       Earth
Advisory